sensor_id;sensor_type;location;lat;lon;timestamp;pressure;altitude;pressure_sealevel;temperature;humidity
63535;BME280;55128;50.230;18.944;2024-03-08T00:01:03;99050.84;;;-0.31;81.63
63535;BME280;55128;50.230;18.944;2024-03-08T00:06:04;99051.66;;;-0.38;82.32
63535;BME280;55128;50.230;18.944;2024-03-08T00:11:06;99044.69;;;-0.43;82.36
63535;BME280;55128;50.230;18.944;2024-03-08T00:16:06;99043.81;;;-0.46;82.30
63535;BME280;55128;50.230;18.944;2024-03-08T00:21:08;99042.94;;;-0.44;82.51
63535;BME280;55128;50.230;18.944;2024-03-08T00:26:09;99046.41;;;-0.42;82.68
63535;BME280;55128;50.230;18.944;2024-03-08T00:31:09;99037.75;;;-0.34;82.41
63535;BME280;55128;50.230;18.944;2024-03-08T00:36:10;99027.28;;;-0.44;82.42
63535;BME280;55128;50.230;18.944;2024-03-08T00:41:10;99027.28;;;-0.47;82.08
63535;BME280;55128;50.230;18.944;2024-03-08T00:46:10;99027.19;;;-0.61;82.07
63535;BME280;55128;50.230;18.944;2024-03-08T00:51:11;99035.00;;;-0.62;82.65
63535;BME280;55128;50.230;18.944;2024-03-08T00:56:11;99020.28;;;-0.60;81.99
63535;BME280;55128;50.230;18.944;2024-03-08T01:01:13;99021.00;;;-0.84;83.30
63535;BME280;55128;50.230;18.944;2024-03-08T01:06:15;99014.91;;;-0.88;83.62
63535;BME280;55128;50.230;18.944;2024-03-08T01:11:16;99007.06;;;-0.89;83.78
63535;BME280;55128;50.230;18.944;2024-03-08T01:16:17;99001.81;;;-0.94;84.00
63535;BME280;55128;50.230;18.944;2024-03-08T01:21:17;98999.38;;;-0.69;83.50
63535;BME280;55128;50.230;18.944;2024-03-08T01:26:18;98992.34;;;-0.84;83.19
63535;BME280;55128;50.230;18.944;2024-03-08T01:31:18;98996.56;;;-1.00;83.77
63535;BME280;55128;50.230;18.944;2024-03-08T01:36:18;98983.63;;;-0.88;84.05
63535;BME280;55128;50.230;18.944;2024-03-08T01:41:19;98977.47;;;-0.96;83.80
63535;BME280;55128;50.230;18.944;2024-03-08T01:46:21;98978.44;;;-0.82;84.08
63535;BME280;55128;50.230;18.944;2024-03-08T01:51:22;98968.03;;;-0.82;84.03
63535;BME280;55128;50.230;18.944;2024-03-08T01:56:23;98975.03;;;-0.68;83.54
63535;BME280;55128;50.230;18.944;2024-03-08T02:01:25;98969.72;;;-0.90;84.16
63535;BME280;55128;50.230;18.944;2024-03-08T02:06:26;98963.66;;;-0.81;84.56
63535;BME280;55128;50.230;18.944;2024-03-08T02:11:26;98959.31;;;-0.84;84.68
63535;BME280;55128;50.230;18.944;2024-03-08T02:16:27;98955.81;;;-0.90;84.59
63535;BME280;55128;50.230;18.944;2024-03-08T02:21:28;98954.94;;;-0.89;84.70
63535;BME280;55128;50.230;18.944;2024-03-08T02:26:29;98950.59;;;-0.92;84.89
63535;BME280;55128;50.230;18.944;2024-03-08T02:31:30;98957.56;;;-0.88;84.16
63535;BME280;55128;50.230;18.944;2024-03-08T02:36:30;98945.41;;;-0.83;84.63
63535;BME280;55128;50.230;18.944;2024-03-08T02:41:34;98943.56;;;-1.07;85.15
63535;BME280;55128;50.230;18.944;2024-03-08T02:46:35;98947.09;;;-0.97;85.19
63535;BME280;55128;50.230;18.944;2024-03-08T02:51:35;98951.56;;;-0.73;83.90
63535;BME280;55128;50.230;18.944;2024-03-08T02:56:36;98948.88;;;-0.87;84.03
63535;BME280;55128;50.230;18.944;2024-03-08T03:01:37;98946.31;;;-0.77;83.99
63535;BME280;55128;50.230;18.944;2024-03-08T03:06:38;98949.75;;;-0.83;83.66
63535;BME280;55128;50.230;18.944;2024-03-08T03:11:39;98946.22;;;-0.96;83.74
63535;BME280;55128;50.230;18.944;2024-03-08T03:16:39;98952.31;;;-0.94;84.06
63535;BME280;55128;50.230;18.944;2024-03-08T03:21:40;98946.25;;;-0.93;84.30
63535;BME280;55128;50.230;18.944;2024-03-08T03:26:43;98948.84;;;-0.98;83.77
63535;BME280;55128;50.230;18.944;2024-03-08T03:31:43;98943.59;;;-0.96;83.71
63535;BME280;55128;50.230;18.944;2024-03-08T03:36:47;98945.34;;;-0.98;83.62
63535;BME280;55128;50.230;18.944;2024-03-08T03:41:48;98944.47;;;-1.00;83.92
63535;BME280;55128;50.230;18.944;2024-03-08T03:46:52;98939.19;;;-1.09;84.32
63535;BME280;55128;50.230;18.944;2024-03-08T03:51:52;98942.69;;;-1.07;83.76
63535;BME280;55128;50.230;18.944;2024-03-08T03:56:52;98942.69;;;-1.09;83.68
63535;BME280;55128;50.230;18.944;2024-03-08T04:01:53;98939.25;;;-1.00;83.68
63535;BME280;55128;50.230;18.944;2024-03-08T04:06:54;98934.00;;;-1.08;83.94
63535;BME280;55128;50.230;18.944;2024-03-08T04:11:55;98931.44;;;-1.03;83.60
63535;BME280;55128;50.230;18.944;2024-03-08T04:16:56;98934.91;;;-1.01;83.98
63535;BME280;55128;50.230;18.944;2024-03-08T04:21:57;98936.56;;;-1.14;83.95
63535;BME280;55128;50.230;18.944;2024-03-08T04:26:57;98930.50;;;-1.13;84.23
63535;BME280;55128;50.230;18.944;2024-03-08T04:31:59;98932.28;;;-1.00;83.83
63535;BME280;55128;50.230;18.944;2024-03-08T04:37:00;98931.38;;;-1.09;83.93
63535;BME280;55128;50.230;18.944;2024-03-08T04:42:02;98938.38;;;-1.02;84.10
63535;BME280;55128;50.230;18.944;2024-03-08T04:47:10;98934.09;;;-0.95;83.98
63535;BME280;55128;50.230;18.944;2024-03-08T04:52:11;98935.00;;;-0.83;83.49
63535;BME280;55128;50.230;18.944;2024-03-08T04:57:12;98937.56;;;-0.89;83.62
63535;BME280;55128;50.230;18.944;2024-03-08T05:02:12;98939.31;;;-0.91;83.84
63535;BME280;55128;50.230;18.944;2024-03-08T05:07:12;98941.97;;;-0.82;84.10
63535;BME280;55128;50.230;18.944;2024-03-08T05:12:13;98941.94;;;-0.88;84.07
63535;BME280;55128;50.230;18.944;2024-03-08T05:17:13;98940.28;;;-0.67;83.56
63535;BME280;55128;50.230;18.944;2024-03-08T05:22:14;98942.03;;;-0.66;84.04
63535;BME280;55128;50.230;18.944;2024-03-08T05:27:14;98946.47;;;-0.47;83.16
63535;BME280;55128;50.230;18.944;2024-03-08T05:32:14;98949.94;;;-0.40;83.38
63535;BME280;55128;50.230;18.944;2024-03-08T05:37:15;98961.31;;;-0.18;82.99
63535;BME280;55128;50.230;18.944;2024-03-08T05:42:16;98953.50;;;-0.06;82.12
63535;BME280;55128;50.230;18.944;2024-03-08T05:47:16;98957.91;;;0.14;81.89
63535;BME280;55128;50.230;18.944;2024-03-08T05:52:16;98963.13;;;0.20;81.61
63535;BME280;55128;50.230;18.944;2024-03-08T05:57:17;98964.88;;;0.30;81.68
63535;BME280;55128;50.230;18.944;2024-03-08T06:02:17;98953.56;;;0.33;80.78
63535;BME280;55128;50.230;18.944;2024-03-08T06:07:19;98961.41;;;0.44;81.14
63535;BME280;55128;50.230;18.944;2024-03-08T06:12:20;98957.91;;;0.65;80.49
63535;BME280;55128;50.230;18.944;2024-03-08T06:17:21;98960.53;;;0.75;79.73
63535;BME280;55128;50.230;18.944;2024-03-08T06:22:25;98965.72;;;0.78;79.19
63535;BME280;55128;50.230;18.944;2024-03-08T06:27:26;98957.00;;;0.86;79.23
63535;BME280;55128;50.230;18.944;2024-03-08T06:32:26;98960.53;;;0.74;78.52
63535;BME280;55128;50.230;18.944;2024-03-08T06:37:27;98966.59;;;0.96;78.52
63535;BME280;55128;50.230;18.944;2024-03-08T06:42:27;98957.81;;;1.15;77.64
63535;BME280;55128;50.230;18.944;2024-03-08T06:47:28;98954.19;;;1.52;76.58
63535;BME280;55128;50.230;18.944;2024-03-08T06:52:28;98963.91;;;1.31;75.98
63535;BME280;55128;50.230;18.944;2024-03-08T06:57:29;98969.06;;;1.45;75.22
63535;BME280;55128;50.230;18.944;2024-03-08T07:02:29;98956.03;;;1.39;75.64
63535;BME280;55128;50.230;18.944;2024-03-08T07:07:30;98944.63;;;1.49;74.90
63535;BME280;55128;50.230;18.944;2024-03-08T07:12:32;98950.75;;;1.45;74.85
63535;BME280;55128;50.230;18.944;2024-03-08T07:17:32;98959.50;;;1.41;74.82
63535;BME280;55128;50.230;18.944;2024-03-08T07:22:35;98957.78;;;1.35;74.56
63535;BME280;55128;50.230;18.944;2024-03-08T07:27:37;98955.00;;;1.68;74.89
63535;BME280;55128;50.230;18.944;2024-03-08T07:32:37;98962.88;;;1.65;74.19
63535;BME280;55128;50.230;18.944;2024-03-08T07:37:38;98950.50;;;1.94;73.93
63535;BME280;55128;50.230;18.944;2024-03-08T07:42:40;98947.88;;;1.98;73.21
63535;BME280;55128;50.230;18.944;2024-03-08T07:47:40;98962.63;;;2.09;73.03
63535;BME280;55128;50.230;18.944;2024-03-08T07:52:40;98964.41;;;2.09;72.31
63535;BME280;55128;50.230;18.944;2024-03-08T07:57:41;98960.16;;;1.83;72.03
63535;BME280;55128;50.230;18.944;2024-03-08T08:02:44;98968.91;;;1.82;73.04
63535;BME280;55128;50.230;18.944;2024-03-08T08:07:45;98959.25;;;1.90;73.06
63535;BME280;55128;50.230;18.944;2024-03-08T08:12:46;98960.06;;;2.02;71.99
63535;BME280;55128;50.230;18.944;2024-03-08T08:17:47;98968.88;;;1.88;72.85
63535;BME280;55128;50.230;18.944;2024-03-08T08:22:52;98967.16;;;1.81;72.25
63535;BME280;55128;50.230;18.944;2024-03-08T08:27:52;98973.25;;;1.80;72.65
63535;BME280;55128;50.230;18.944;2024-03-08T08:32:53;98974.91;;;2.01;72.33
63535;BME280;55128;50.230;18.944;2024-03-08T08:37:55;98980.16;;;2.03;71.65
63535;BME280;55128;50.230;18.944;2024-03-08T08:42:56;98961.72;;;2.20;71.56
63535;BME280;55128;50.230;18.944;2024-03-08T08:47:59;98972.88;;;2.43;70.53
63535;BME280;55128;50.230;18.944;2024-03-08T08:53:00;98965.88;;;2.47;71.14
63535;BME280;55128;50.230;18.944;2024-03-08T08:58:00;98984.16;;;2.51;69.35
63535;BME280;55128;50.230;18.944;2024-03-08T09:03:02;98976.34;;;2.44;70.25
63535;BME280;55128;50.230;18.944;2024-03-08T09:08:03;98967.34;;;2.76;70.07
63535;BME280;55128;50.230;18.944;2024-03-08T09:13:03;98957.69;;;2.84;68.85
63535;BME280;55128;50.230;18.944;2024-03-08T09:18:04;98955.00;;;2.93;68.76
63535;BME280;55128;50.230;18.944;2024-03-08T09:23:06;98953.06;;;3.10;68.17
63535;BME280;55128;50.230;18.944;2024-03-08T09:28:06;98950.97;;;3.40;68.42
63535;BME280;55128;50.230;18.944;2024-03-08T09:33:06;98956.16;;;3.46;67.26
63535;BME280;55128;50.230;18.944;2024-03-08T09:38:07;98944.78;;;3.46;67.19
63535;BME280;55128;50.230;18.944;2024-03-08T09:43:13;98955.94;;;3.62;65.89
63535;BME280;55128;50.230;18.944;2024-03-08T09:48:14;98958.00;;;3.38;66.01
63535;BME280;55128;50.230;18.944;2024-03-08T09:53:15;98953.81;;;3.19;66.20
63535;BME280;55128;50.230;18.944;2024-03-08T09:58:16;98942.66;;;3.76;66.63
63535;BME280;55128;50.230;18.944;2024-03-08T10:03:20;98939.38;;;4.22;64.79
63535;BME280;55128;50.230;18.944;2024-03-08T10:08:20;98946.75;;;3.95;63.83
63535;BME280;55128;50.230;18.944;2024-03-08T10:13:20;98944.84;;;4.06;64.49
63535;BME280;55128;50.230;18.944;2024-03-08T10:18:21;98940.75;;;4.44;63.05
63535;BME280;55128;50.230;18.944;2024-03-08T10:23:22;98945.44;;;4.25;62.90
63535;BME280;55128;50.230;18.944;2024-03-08T10:28:23;98971.00;;;4.73;63.02
63535;BME280;55128;50.230;18.944;2024-03-08T10:33:25;98950.56;;;5.78;60.14
63535;BME280;55128;50.230;18.944;2024-03-08T10:38:26;98952.78;;;5.99;58.51
63535;BME280;55128;50.230;18.944;2024-03-08T10:43:28;98935.31;;;5.95;57.12
63535;BME280;55128;50.230;18.944;2024-03-08T10:48:31;98921.88;;;6.06;58.58
63535;BME280;55128;50.230;18.944;2024-03-08T10:53:33;98930.84;;;5.99;56.49
63535;BME280;55128;50.230;18.944;2024-03-08T10:58:35;98918.06;;;5.79;58.29
63535;BME280;55128;50.230;18.944;2024-03-08T11:08:40;98912.84;;;5.76;56.51
63535;BME280;55128;50.230;18.944;2024-03-08T11:13:41;98905.25;;;5.62;57.73
63535;BME280;55128;50.230;18.944;2024-03-08T11:18:43;98902.09;;;5.87;57.68
63535;BME280;55128;50.230;18.944;2024-03-08T11:24:07;98895.84;;;5.91;57.24
63535;BME280;55128;50.230;18.944;2024-03-08T11:29:32;98892.19;;;5.98;56.83
63535;BME280;55128;50.230;18.944;2024-03-08T11:34:37;98881.06;;;5.83;57.81
63535;BME280;55128;50.230;18.944;2024-03-08T11:39:39;98870.72;;;6.15;56.83
63535;BME280;55128;50.230;18.944;2024-03-08T11:44:39;98875.22;;;6.10;56.31
63535;BME280;55128;50.230;18.944;2024-03-08T11:49:45;98877.22;;;6.00;55.50
63535;BME280;55128;50.230;18.944;2024-03-08T11:54:51;98863.44;;;5.85;55.95
63535;BME280;55128;50.230;18.944;2024-03-08T11:59:55;98852.56;;;5.63;56.23
63535;BME280;55128;50.230;18.944;2024-03-08T12:05:00;98861.81;;;6.19;54.73
63535;BME280;55128;50.230;18.944;2024-03-08T12:10:20;98841.47;;;6.26;55.17
63535;BME280;55128;50.230;18.944;2024-03-08T12:15:23;98843.94;;;6.32;55.31
63535;BME280;55128;50.230;18.944;2024-03-08T12:20:25;98837.91;;;6.27;55.35
63535;BME280;55128;50.230;18.944;2024-03-08T12:25:33;98830.38;;;6.46;55.17
63535;BME280;55128;50.230;18.944;2024-03-08T12:30:45;98828.91;;;6.35;55.08
63535;BME280;55128;50.230;18.944;2024-03-08T12:35:53;98815.75;;;6.34;55.34
63535;BME280;55128;50.230;18.944;2024-03-08T12:41:00;98811.75;;;6.53;53.88
63535;BME280;55128;50.230;18.944;2024-03-08T12:46:01;98806.59;;;6.49;54.88
63535;BME280;55128;50.230;18.944;2024-03-08T12:51:02;98799.81;;;6.71;53.24
63535;BME280;55128;50.230;18.944;2024-03-08T12:56:02;98805.22;;;6.68;53.71
63535;BME280;55128;50.230;18.944;2024-03-08T13:01:08;98793.63;;;6.74;53.54
63535;BME280;55128;50.230;18.944;2024-03-08T13:06:08;98791.44;;;6.57;53.54
63535;BME280;55128;50.230;18.944;2024-03-08T13:11:10;98781.13;;;6.79;53.60
63535;BME280;55128;50.230;18.944;2024-03-08T13:16:14;98778.69;;;7.04;53.12
63535;BME280;55128;50.230;18.944;2024-03-08T13:21:19;98775.19;;;7.32;52.04
63535;BME280;55128;50.230;18.944;2024-03-08T13:26:20;98766.97;;;7.13;52.83
63535;BME280;55128;50.230;18.944;2024-03-08T13:31:21;98754.84;;;7.35;52.61
63535;BME280;55128;50.230;18.944;2024-03-08T13:36:21;98760.38;;;7.28;51.14
63535;BME280;55128;50.230;18.944;2024-03-08T13:41:22;98756.13;;;7.22;51.30
63535;BME280;55128;50.230;18.944;2024-03-08T13:46:24;98744.25;;;7.37;50.87
63535;BME280;55128;50.230;18.944;2024-03-08T13:51:26;98745.25;;;7.33;51.90
63535;BME280;55128;50.230;18.944;2024-03-08T13:56:27;98747.03;;;7.32;51.53
63535;BME280;55128;50.230;18.944;2024-03-08T14:01:30;98743.88;;;7.21;51.78
63535;BME280;55128;50.230;18.944;2024-03-08T14:06:30;98732.53;;;7.17;52.68
63535;BME280;55128;50.230;18.944;2024-03-08T14:11:30;98734.94;;;7.25;53.04
63535;BME280;55128;50.230;18.944;2024-03-08T14:16:31;98730.66;;;7.21;53.66
63535;BME280;55128;50.230;18.944;2024-03-08T14:21:32;98735.25;;;7.43;52.72
63535;BME280;55128;50.230;18.944;2024-03-08T14:26:32;98733.59;;;7.40;52.74
63535;BME280;55128;50.230;18.944;2024-03-08T14:31:34;98731.00;;;7.38;52.93
63535;BME280;55128;50.230;18.944;2024-03-08T14:36:36;98727.81;;;7.27;53.94
63535;BME280;55128;50.230;18.944;2024-03-08T14:41:38;98715.25;;;7.06;54.14
63535;BME280;55128;50.230;18.944;2024-03-08T14:46:38;98719.91;;;7.27;55.19
63535;BME280;55128;50.230;18.944;2024-03-08T14:51:39;98721.31;;;7.09;55.77
63535;BME280;55128;50.230;18.944;2024-03-08T14:56:39;98716.28;;;7.01;55.60
63535;BME280;55128;50.230;18.944;2024-03-08T15:01:43;98705.63;;;6.75;56.90
63535;BME280;55128;50.230;18.944;2024-03-08T15:06:44;98710.16;;;6.70;57.31
63535;BME280;55128;50.230;18.944;2024-03-08T15:11:48;98707.72;;;6.64;57.86
63535;BME280;55128;50.230;18.944;2024-03-08T15:16:50;98705.53;;;6.48;58.17
63535;BME280;55128;50.230;18.944;2024-03-08T15:21:51;98708.66;;;6.30;58.98
63535;BME280;55128;50.230;18.944;2024-03-08T15:26:56;98709.97;;;6.13;59.26
63535;BME280;55128;50.230;18.944;2024-03-08T15:31:57;98698.72;;;6.08;60.39
63535;BME280;55128;50.230;18.944;2024-03-08T15:36:58;98695.09;;;6.12;59.91
63535;BME280;55128;50.230;18.944;2024-03-08T15:42:02;98690.25;;;5.94;59.80
63535;BME280;55128;50.230;18.944;2024-03-08T15:47:02;98691.56;;;5.77;60.55
63535;BME280;55128;50.230;18.944;2024-03-08T15:52:03;98691.78;;;5.68;61.37
63535;BME280;55128;50.230;18.944;2024-03-08T15:57:06;98688.84;;;5.80;60.97
63535;BME280;55128;50.230;18.944;2024-03-08T16:02:13;98686.66;;;5.63;60.92
63535;BME280;55128;50.230;18.944;2024-03-08T16:07:13;98691.56;;;5.41;62.08
63535;BME280;55128;50.230;18.944;2024-03-08T16:12:13;98688.47;;;5.24;63.26
63535;BME280;55128;50.230;18.944;2024-03-08T16:17:15;98696.66;;;5.10;63.53
63535;BME280;55128;50.230;18.944;2024-03-08T16:22:17;98693.38;;;5.00;63.56
63535;BME280;55128;50.230;18.944;2024-03-08T16:27:18;98686.88;;;4.78;64.23
63535;BME280;55128;50.230;18.944;2024-03-08T16:32:18;98683.28;;;4.82;64.09
63535;BME280;55128;50.230;18.944;2024-03-08T16:37:20;98685.91;;;4.82;64.13
63535;BME280;55128;50.230;18.944;2024-03-08T16:42:22;98682.16;;;4.52;65.15
63535;BME280;55128;50.230;18.944;2024-03-08T16:47:23;98685.06;;;4.39;64.98
63535;BME280;55128;50.230;18.944;2024-03-08T16:52:24;98685.25;;;4.28;66.44
63535;BME280;55128;50.230;18.944;2024-03-08T16:57:24;98683.09;;;4.05;66.69
63535;BME280;55128;50.230;18.944;2024-03-08T17:02:25;98682.97;;;4.12;67.23
63535;BME280;55128;50.230;18.944;2024-03-08T17:07:26;98678.72;;;4.04;67.18
63535;BME280;55128;50.230;18.944;2024-03-08T17:12:27;98680.75;;;3.88;67.80
63535;BME280;55128;50.230;18.944;2024-03-08T17:17:27;98693.41;;;3.66;68.43
63535;BME280;55128;50.230;18.944;2024-03-08T17:22:28;98690.97;;;3.54;69.23
63535;BME280;55128;50.230;18.944;2024-03-08T17:27:28;98694.56;;;3.48;68.66
63535;BME280;55128;50.230;18.944;2024-03-08T17:32:29;98694.97;;;3.22;68.91
63535;BME280;55128;50.230;18.944;2024-03-08T17:37:33;98692.38;;;3.21;68.70
63535;BME280;55128;50.230;18.944;2024-03-08T17:42:34;98703.00;;;3.11;68.15
63535;BME280;55128;50.230;18.944;2024-03-08T17:47:34;98704.13;;;2.94;68.63
63535;BME280;55128;50.230;18.944;2024-03-08T17:52:34;98691.28;;;2.75;69.58
63535;BME280;55128;50.230;18.944;2024-03-08T17:57:36;98704.56;;;2.63;69.34
63535;BME280;55128;50.230;18.944;2024-03-08T18:02:39;98696.84;;;2.49;70.79
63535;BME280;55128;50.230;18.944;2024-03-08T18:07:41;98702.25;;;2.37;71.39
63535;BME280;55128;50.230;18.944;2024-03-08T18:12:41;98699.84;;;2.18;71.50
63535;BME280;55128;50.230;18.944;2024-03-08T18:17:41;98693.88;;;2.04;72.53
63535;BME280;55128;50.230;18.944;2024-03-08T18:22:44;98688.75;;;1.91;72.99
63535;BME280;55128;50.230;18.944;2024-03-08T18:27:45;98693.13;;;1.91;71.94
63535;BME280;55128;50.230;18.944;2024-03-08T18:32:47;98689.66;;;1.87;72.13
63535;BME280;55128;50.230;18.944;2024-03-08T18:37:48;98690.75;;;1.65;73.28
63535;BME280;55128;50.230;18.944;2024-03-08T18:42:50;98685.66;;;1.49;74.60
63535;BME280;55128;50.230;18.944;2024-03-08T18:47:52;98679.66;;;1.40;74.40
63535;BME280;55128;50.230;18.944;2024-03-08T18:52:53;98678.81;;;1.33;74.93
63535;BME280;55128;50.230;18.944;2024-03-08T18:57:55;98678.88;;;1.24;75.30
63535;BME280;55128;50.230;18.944;2024-03-08T19:02:59;98671.16;;;1.13;75.36
63535;BME280;55128;50.230;18.944;2024-03-08T19:08:01;98681.66;;;1.04;76.32
63535;BME280;55128;50.230;18.944;2024-03-08T19:13:02;98677.34;;;0.96;76.58
63535;BME280;55128;50.230;18.944;2024-03-08T19:18:03;98675.59;;;1.00;75.41
63535;BME280;55128;50.230;18.944;2024-03-08T19:23:07;98670.38;;;0.99;75.22
63535;BME280;55128;50.230;18.944;2024-03-08T19:28:11;98675.59;;;1.00;75.31
63535;BME280;55128;50.230;18.944;2024-03-08T19:33:16;98657.34;;;0.92;76.23
63535;BME280;55128;50.230;18.944;2024-03-08T19:38:18;98660.75;;;1.04;76.59
63535;BME280;55128;50.230;18.944;2024-03-08T19:43:20;98652.97;;;0.94;75.41
63535;BME280;55128;50.230;18.944;2024-03-08T19:48:21;98649.53;;;0.88;76.14
63535;BME280;55128;50.230;18.944;2024-03-08T19:53:22;98649.50;;;0.89;75.90
63535;BME280;55128;50.230;18.944;2024-03-08T19:58:22;98652.19;;;0.80;75.81
63535;BME280;55128;50.230;18.944;2024-03-08T20:03:23;98649.63;;;0.72;76.07
63535;BME280;55128;50.230;18.944;2024-03-08T20:08:24;98651.38;;;0.69;77.23
63535;BME280;55128;50.230;18.944;2024-03-08T20:13:30;98641.69;;;0.89;78.22
63535;BME280;55128;50.230;18.944;2024-03-08T20:18:33;98639.13;;;0.82;77.98
63535;BME280;55128;50.230;18.944;2024-03-08T20:23:35;98636.56;;;0.74;77.86
63535;BME280;55128;50.230;18.944;2024-03-08T20:28:35;98632.16;;;0.81;78.79
63535;BME280;55128;50.230;18.944;2024-03-08T20:33:35;98621.69;;;0.84;79.13
63535;BME280;55128;50.230;18.944;2024-03-08T20:38:39;98614.66;;;0.92;79.27
63535;BME280;55128;50.230;18.944;2024-03-08T20:43:40;98623.44;;;0.82;79.68
63535;BME280;55128;50.230;18.944;2024-03-08T20:48:41;98614.63;;;0.95;79.91
63535;BME280;55128;50.230;18.944;2024-03-08T20:53:45;98617.31;;;0.84;80.43
63535;BME280;55128;50.230;18.944;2024-03-08T20:58:46;98622.59;;;0.75;80.49
63535;BME280;55128;50.230;18.944;2024-03-08T21:03:48;98606.84;;;0.87;79.82
63535;BME280;55128;50.230;18.944;2024-03-08T21:08:49;98609.47;;;0.86;80.29
63535;BME280;55128;50.230;18.944;2024-03-08T21:13:49;98601.63;;;0.86;80.30
63535;BME280;55128;50.230;18.944;2024-03-08T21:18:50;98597.31;;;0.85;80.22
63535;BME280;55128;50.230;18.944;2024-03-08T21:23:50;98599.09;;;0.76;80.43
63535;BME280;55128;50.230;18.944;2024-03-08T21:28:50;98588.63;;;0.83;80.43
63535;BME280;55128;50.230;18.944;2024-03-08T21:33:51;98592.94;;;0.85;79.98
63535;BME280;55128;50.230;18.944;2024-03-08T21:38:51;98588.63;;;0.80;80.00
63535;BME280;55128;50.230;18.944;2024-03-08T21:43:51;98589.47;;;0.82;79.78
63535;BME280;55128;50.230;18.944;2024-03-08T21:48:52;98585.13;;;0.81;80.13
63535;BME280;55128;50.230;18.944;2024-03-08T21:53:52;98582.44;;;0.93;79.54
63535;BME280;55128;50.230;18.944;2024-03-08T21:58:53;98584.25;;;0.80;80.42
63535;BME280;55128;50.230;18.944;2024-03-08T22:03:56;98582.59;;;0.70;80.87
63535;BME280;55128;50.230;18.944;2024-03-08T22:08:56;98571.25;;;0.69;80.51
63535;BME280;55128;50.230;18.944;2024-03-08T22:13:59;98576.50;;;0.69;81.04
63535;BME280;55128;50.230;18.944;2024-03-08T22:18:59;98567.00;;;0.59;80.52
63535;BME280;55128;50.230;18.944;2024-03-08T22:24:00;98566.22;;;0.43;81.42
63535;BME280;55128;50.230;18.944;2024-03-08T22:29:01;98568.81;;;0.48;81.05
63535;BME280;55128;50.230;18.944;2024-03-08T22:34:01;98565.41;;;0.35;81.61
63535;BME280;55128;50.230;18.944;2024-03-08T22:39:02;98560.19;;;0.40;81.86
63535;BME280;55128;50.230;18.944;2024-03-08T22:44:04;98554.13;;;0.31;81.94
63535;BME280;55128;50.230;18.944;2024-03-08T22:49:04;98545.38;;;0.42;81.73
63535;BME280;55128;50.230;18.944;2024-03-08T22:54:04;98548.84;;;0.37;81.31
63535;BME280;55128;50.230;18.944;2024-03-08T22:59:05;98540.09;;;0.45;81.30
63535;BME280;55128;50.230;18.944;2024-03-08T23:04:06;98541.13;;;0.22;82.16
63535;BME280;55128;50.230;18.944;2024-03-08T23:09:11;98535.03;;;0.18;82.56
63535;BME280;55128;50.230;18.944;2024-03-08T23:14:12;98531.63;;;0.13;82.08
63535;BME280;55128;50.230;18.944;2024-03-08T23:19:13;98534.19;;;0.19;81.37
63535;BME280;55128;50.230;18.944;2024-03-08T23:24:13;98535.03;;;0.18;80.91
63535;BME280;55128;50.230;18.944;2024-03-08T23:29:14;98536.81;;;0.15;80.72
63535;BME280;55128;50.230;18.944;2024-03-08T23:34:14;98536.84;;;0.12;80.09
63535;BME280;55128;50.230;18.944;2024-03-08T23:39:15;98532.56;;;-0.02;80.17
63535;BME280;55128;50.230;18.944;2024-03-08T23:44:15;98532.56;;;-0.02;80.57
63535;BME280;55128;50.230;18.944;2024-03-08T23:49:17;98534.31;;;-0.11;80.61
63535;BME280;55128;50.230;18.944;2024-03-08T23:54:18;98531.72;;;-0.05;81.13
63535;BME280;55128;50.230;18.944;2024-03-08T23:59:22;98535.13;;;0.06;81.33
